createdAt,value
2018-08-17T00:02:27.946Z,19.10
2018-08-17T00:04:56.469Z,19.10
2018-08-17T00:07:25.023Z,19.10
2018-08-17T00:09:54.666Z,19.00
2018-08-17T00:12:23.131Z,19.10
2018-08-17T00:14:51.707Z,19.10
2018-08-17T00:17:20.246Z,19.00
2018-08-17T00:19:48.945Z,19.00
2018-08-17T00:22:17.437Z,18.90
2018-08-17T00:24:46.040Z,18.90
2018-08-17T00:27:14.498Z,18.80
2018-08-17T00:29:42.971Z,18.80
2018-08-17T00:32:11.698Z,18.80
2018-08-17T00:34:40.299Z,18.70
2018-08-17T00:37:08.818Z,18.70
2018-08-17T00:39:37.629Z,18.70
2018-08-17T00:42:06.274Z,18.70
2018-08-17T00:44:34.835Z,18.70
2018-08-17T00:47:03.454Z,18.70
2018-08-17T00:49:32.194Z,18.70
2018-08-17T00:52:00.731Z,18.70
2018-08-17T00:54:29.328Z,19.70
2018-08-17T00:56:58.008Z,18.70
2018-08-17T00:59:26.521Z,18.60
2018-08-17T01:01:54.985Z,18.60
2018-08-17T01:04:23.495Z,18.60
2018-08-17T01:06:52.059Z,18.60
2018-08-17T01:09:20.663Z,18.60
2018-08-17T01:11:49.133Z,18.50
2018-08-17T01:14:18.032Z,18.60
2018-08-17T01:16:46.514Z,18.50
2018-08-17T01:19:15.074Z,18.50
2018-08-17T01:21:43.738Z,18.50
2018-08-17T01:24:12.240Z,18.50
2018-08-17T01:26:40.755Z,18.40
2018-08-17T01:29:09.203Z,18.40
2018-08-17T01:31:37.724Z,18.40
2018-08-17T01:34:07.187Z,18.40
2018-08-17T01:36:35.859Z,18.40
2018-08-17T01:39:05.868Z,18.30
2018-08-17T01:41:34.367Z,18.30
2018-08-17T01:44:03.243Z,18.30
2018-08-17T01:46:31.731Z,18.30
2018-08-17T01:49:00.503Z,18.30
2018-08-17T01:51:29.019Z,18.30
2018-08-17T01:53:57.623Z,18.20
2018-08-17T01:56:26.315Z,18.30
2018-08-17T01:58:54.851Z,18.30
2018-08-17T02:01:23.499Z,18.30
2018-08-17T02:03:52.103Z,18.20
2018-08-17T02:06:20.938Z,18.10
2018-08-17T02:08:49.403Z,18.10
2018-08-17T02:11:17.946Z,18.10
2018-08-17T02:13:46.506Z,18.00
2018-08-17T02:16:15.195Z,18.00
2018-08-17T02:18:43.810Z,18.00
2018-08-17T02:21:12.319Z,17.90
2018-08-17T02:23:40.942Z,17.90
2018-08-17T02:26:09.651Z,18.00
2018-08-17T02:28:38.323Z,18.00
2018-08-17T02:31:06.899Z,18.00
2018-08-17T02:33:35.370Z,18.00
2018-08-17T02:36:03.964Z,18.00
2018-08-17T02:38:32.498Z,18.10
2018-08-17T02:41:00.973Z,18.10
2018-08-17T02:43:29.535Z,18.10
2018-08-17T02:45:58.003Z,18.00
2018-08-17T02:48:26.466Z,18.00
2018-08-17T02:50:54.923Z,18.10
2018-08-17T02:53:23.420Z,18.00
2018-08-17T02:55:51.919Z,18.00
2018-08-17T02:58:20.410Z,18.00
2018-08-17T03:00:49.060Z,18.00
2018-08-17T03:03:17.754Z,18.00
2018-08-17T03:05:46.366Z,18.10
2018-08-17T03:08:14.852Z,18.10
2018-08-17T03:10:43.326Z,18.10
2018-08-17T03:13:11.835Z,18.10
2018-08-17T03:15:40.340Z,18.10
2018-08-17T03:18:08.977Z,18.10
2018-08-17T03:20:37.471Z,18.10
2018-08-17T03:23:06.135Z,18.10
2018-08-17T03:25:35.041Z,18.10
2018-08-17T03:28:03.505Z,18.10
2018-08-17T03:30:32.027Z,18.10
2018-08-17T03:33:00.766Z,18.00
2018-08-17T03:35:29.267Z,17.90
2018-08-17T03:37:57.782Z,17.80
2018-08-17T03:40:26.219Z,17.70
2018-08-17T03:42:54.728Z,17.70
2018-08-17T03:45:23.271Z,17.60
2018-08-17T03:47:51.751Z,17.50
2018-08-17T03:50:20.365Z,17.40
2018-08-17T03:52:48.909Z,17.40
2018-08-17T03:55:17.516Z,17.40
2018-08-17T03:57:46.083Z,17.50
2018-08-17T04:00:14.603Z,17.50
2018-08-17T04:02:43.226Z,17.50
2018-08-17T04:05:11.755Z,17.50
2018-08-17T04:07:40.394Z,17.40
2018-08-17T04:10:08.958Z,17.30
2018-08-17T04:12:37.507Z,17.40
2018-08-17T04:15:07.193Z,17.40
2018-08-17T04:17:35.659Z,17.40
2018-08-17T04:20:04.716Z,17.50
2018-08-17T04:22:33.458Z,17.60
2018-08-17T04:25:01.971Z,17.60
2018-08-17T04:27:30.582Z,17.60
2018-08-17T04:29:59.095Z,17.60
2018-08-17T04:32:27.574Z,17.60
2018-08-17T04:34:56.195Z,17.60
2018-08-17T04:37:24.822Z,17.50
2018-08-17T04:39:53.413Z,17.50
2018-08-17T04:42:21.883Z,17.60
2018-08-17T04:44:50.479Z,17.60
2018-08-17T04:47:18.972Z,17.60
2018-08-17T04:49:47.444Z,17.70
2018-08-17T04:52:16.111Z,17.50
2018-08-17T04:54:44.703Z,17.80
2018-08-17T04:57:13.626Z,17.80
2018-08-17T04:59:42.206Z,17.80
2018-08-17T05:02:10.819Z,17.90
2018-08-17T05:04:39.419Z,17.90
2018-08-17T05:07:09.038Z,17.90
2018-08-17T05:09:37.644Z,17.90
2018-08-17T05:12:06.091Z,17.90
2018-08-17T05:14:34.705Z,18.00
2018-08-17T05:17:03.248Z,18.00
2018-08-17T05:19:31.703Z,18.00
2018-08-17T05:22:00.390Z,18.00
2018-08-17T05:24:28.834Z,18.00
2018-08-17T05:26:57.487Z,18.10
2018-08-17T05:29:25.985Z,18.10
2018-08-17T05:31:54.455Z,18.20
2018-08-17T05:34:23.101Z,18.20
2018-08-17T05:36:51.835Z,18.20
2018-08-17T05:39:20.370Z,18.20
2018-08-17T05:41:48.857Z,18.30
2018-08-17T05:44:17.362Z,18.30
2018-08-17T05:46:45.998Z,18.30
2018-08-17T05:49:14.599Z,18.40
2018-08-17T05:51:43.083Z,18.40
2018-08-17T05:54:11.659Z,18.40
2018-08-17T05:56:40.345Z,18.40
2018-08-17T05:59:08.864Z,18.40
2018-08-17T06:01:37.371Z,18.40
2018-08-17T06:04:06.266Z,18.50
2018-08-17T06:06:34.847Z,18.50
2018-08-17T06:09:03.614Z,18.50
2018-08-17T06:11:32.161Z,18.50
2018-08-17T06:14:00.930Z,18.60
2018-08-17T06:16:29.688Z,18.60
2018-08-17T06:18:58.346Z,18.60
2018-08-17T06:21:26.889Z,18.70
2018-08-17T06:23:55.538Z,18.70
2018-08-17T06:26:24.043Z,18.70
2018-08-17T06:28:52.878Z,18.70
2018-08-17T06:31:21.543Z,18.70
2018-08-17T06:33:50.053Z,18.70
2018-08-17T06:36:18.618Z,18.80
2018-08-17T06:38:47.775Z,18.80
2018-08-17T06:41:16.290Z,18.80
2018-08-17T06:43:44.898Z,18.80
2018-08-17T06:46:13.496Z,18.90
2018-08-17T06:48:42.202Z,18.90
2018-08-17T06:51:10.788Z,18.90
2018-08-17T06:53:39.242Z,18.90
2018-08-17T06:56:07.817Z,18.90
2018-08-17T06:58:36.430Z,19.00
2018-08-17T07:01:04.927Z,18.90
2018-08-17T07:03:33.536Z,18.90
2018-08-17T07:06:02.120Z,18.90
2018-08-17T07:08:30.831Z,18.90
2018-08-17T07:10:59.672Z,18.90
2018-08-17T07:13:28.178Z,18.90
2018-08-17T07:15:56.670Z,18.80
2018-08-17T07:18:25.143Z,18.90
2018-08-17T07:20:53.867Z,18.90
2018-08-17T07:23:22.352Z,18.90
2018-08-17T07:25:50.970Z,18.90
2018-08-17T07:28:19.484Z,18.90
2018-08-17T07:30:48.096Z,18.90
2018-08-17T07:33:16.603Z,18.90
2018-08-17T07:35:45.180Z,18.90
2018-08-17T07:38:13.774Z,19.00
2018-08-17T07:40:42.283Z,19.00
2018-08-17T07:43:10.818Z,19.10
2018-08-17T07:45:39.346Z,19.20
2018-08-17T07:48:08.432Z,19.30
2018-08-17T07:50:36.954Z,19.30
2018-08-17T07:53:05.469Z,19.30
2018-08-17T07:55:33.973Z,19.30
2018-08-17T07:58:02.679Z,19.30
2018-08-17T08:00:31.307Z,19.20
2018-08-17T08:02:59.885Z,19.10
2018-08-17T08:05:28.551Z,19.10
2018-08-17T08:07:57.252Z,19.00
2018-08-17T08:10:25.860Z,19.00
2018-08-17T08:12:54.441Z,19.00
2018-08-17T08:15:23.078Z,19.00
2018-08-17T08:17:51.603Z,19.00
2018-08-17T08:20:37.447Z,19.00
2018-08-17T08:23:17.216Z,19.00
2018-08-17T08:25:45.727Z,19.10
2018-08-17T08:28:14.273Z,19.10
2018-08-17T08:30:42.832Z,19.10
2018-08-17T08:33:11.421Z,19.00
2018-08-17T08:35:40.138Z,19.00
2018-08-17T08:38:08.803Z,18.90
2018-08-17T08:40:37.568Z,18.80
2018-08-17T08:43:06.481Z,18.70
2018-08-17T08:45:35.186Z,18.70
2018-08-17T08:48:04.225Z,18.80
2018-08-17T08:50:32.807Z,18.90
2018-08-17T08:53:01.635Z,19.10
2018-08-17T08:55:30.186Z,19.20
2018-08-17T08:57:58.826Z,19.30
2018-08-17T09:00:27.332Z,19.30
2018-08-17T09:02:56.067Z,19.30
2018-08-17T09:05:24.632Z,19.30
2018-08-17T09:07:53.478Z,19.30
2018-08-17T09:10:22.020Z,19.30
2018-08-17T09:12:50.546Z,19.30
2018-08-17T09:15:19.170Z,19.30
2018-08-17T09:17:47.644Z,19.30
2018-08-17T09:20:17.117Z,19.40
2018-08-17T09:22:45.784Z,19.40
2018-08-17T09:25:14.439Z,19.40
2018-08-17T09:27:42.911Z,19.50
2018-08-17T09:30:13.203Z,19.50
2018-08-17T09:32:42.027Z,19.50
2018-08-17T09:35:11.966Z,19.60
2018-08-17T09:37:40.810Z,19.60
2018-08-17T09:40:10.316Z,19.60
2018-08-17T09:42:38.903Z,19.70
2018-08-17T09:45:09.868Z,19.90
2018-08-17T09:47:38.447Z,20.00
2018-08-17T09:50:10.761Z,20.00
2018-08-17T09:52:39.708Z,20.00
2018-08-17T09:55:08.218Z,20.00
2018-08-17T09:57:36.801Z,20.10
2018-08-17T10:00:06.854Z,20.30
2018-08-17T10:02:41.134Z,20.40
2018-08-17T10:05:15.112Z,20.50
2018-08-17T10:07:49.096Z,20.60
2018-08-17T10:10:19.200Z,20.80
2018-08-17T10:12:49.259Z,20.80
2018-08-17T10:15:17.762Z,20.90
2018-08-17T10:17:46.415Z,21.00
2018-08-17T10:20:17.345Z,21.10
2018-08-17T10:22:46.258Z,21.10
2018-08-17T10:25:18.311Z,21.20
2018-08-17T10:27:48.352Z,21.30
2018-08-17T10:30:17.719Z,21.30
2018-08-17T10:32:50.644Z,21.40
2018-08-17T10:35:23.673Z,21.40
2018-08-17T10:37:53.924Z,21.40
2018-08-17T10:40:22.724Z,21.30
2018-08-17T10:42:51.429Z,21.40
2018-08-17T10:45:20.951Z,21.40
2018-08-17T10:47:50.598Z,21.40
2018-08-17T10:50:20.447Z,21.50
2018-08-17T10:52:51.503Z,21.40
2018-08-17T10:55:20.698Z,21.50
2018-08-17T10:57:49.200Z,21.50
2018-08-17T11:00:18.851Z,21.60
2018-08-17T11:02:47.735Z,21.60
2018-08-17T11:05:17.346Z,21.70
2018-08-17T11:07:47.466Z,21.80
2018-08-17T11:10:16.231Z,21.80
2018-08-17T11:12:45.961Z,21.90
2018-08-17T11:15:14.576Z,21.70
2018-08-17T11:17:44.875Z,21.70
2018-08-17T11:20:14.484Z,21.80
2018-08-17T11:22:43.233Z,21.80
2018-08-17T11:25:11.851Z,21.90
2018-08-17T11:27:40.500Z,22.10
2018-08-17T11:30:12.670Z,22.10
2018-08-17T11:32:41.757Z,22.20
2018-08-17T11:35:10.405Z,22.30
2018-08-17T11:37:39.067Z,22.30
2018-08-17T11:40:09.155Z,22.40
2018-08-17T11:42:50.076Z,22.40
2018-08-17T11:45:22.303Z,22.50
2018-08-17T11:47:51.402Z,22.40
2018-08-17T11:50:21.524Z,22.20
2018-08-17T11:52:59.918Z,22.10
2018-08-17T11:55:31.481Z,22.30
2018-08-17T11:58:00.235Z,22.40
2018-08-17T12:00:33.703Z,22.50
2018-08-17T12:03:02.255Z,22.50
2018-08-17T12:05:30.914Z,22.50
2018-08-17T12:07:59.451Z,22.50
2018-08-17T12:10:27.907Z,22.60
2018-08-17T12:13:03.500Z,22.60
2018-08-17T12:15:36.427Z,22.60
2018-08-17T12:18:05.352Z,22.50
2018-08-17T12:20:34.054Z,22.40
2018-08-17T12:23:02.583Z,22.40
2018-08-17T12:25:31.106Z,22.30
2018-08-17T12:28:01.575Z,22.30
2018-08-17T12:30:30.072Z,22.20
2018-08-17T12:32:58.781Z,22.20
2018-08-17T12:35:27.375Z,22.30
2018-08-17T12:38:00.126Z,22.30
2018-08-17T12:40:34.823Z,22.30
2018-08-17T12:43:03.408Z,22.10
2018-08-17T12:45:32.015Z,22.00
2018-08-17T12:48:00.834Z,21.90
2018-08-17T12:50:29.358Z,21.90
2018-08-17T12:52:57.979Z,21.90
2018-08-17T12:55:26.452Z,21.80
2018-08-17T12:57:55.222Z,21.70
2018-08-17T13:00:23.732Z,21.70
2018-08-17T13:02:52.290Z,21.60
2018-08-17T13:05:20.958Z,21.60
2018-08-17T13:07:49.559Z,21.50
2018-08-17T13:10:18.101Z,21.50
2018-08-17T13:12:53.305Z,21.40
2018-08-17T13:15:21.957Z,21.40
2018-08-17T13:17:50.584Z,21.40
2018-08-17T13:20:19.772Z,21.30
2018-08-17T13:22:48.960Z,21.30
2018-08-17T13:25:17.547Z,21.30
2018-08-17T13:27:46.143Z,21.30
2018-08-17T13:30:15.695Z,21.30
2018-08-17T13:32:44.715Z,21.20
2018-08-17T13:35:13.976Z,21.20
2018-08-17T13:37:43.510Z,21.20
2018-08-17T13:40:12.210Z,21.20
2018-08-17T13:42:40.708Z,21.20
2018-08-17T13:45:10.092Z,21.20
2018-08-17T13:47:38.625Z,21.20
2018-08-17T13:50:07.750Z,21.10
2018-08-17T13:52:36.406Z,21.10
2018-08-17T13:55:05.163Z,21.10
2018-08-17T13:57:33.763Z,21.10
2018-08-17T14:00:02.303Z,21.00
2018-08-17T14:02:30.992Z,21.00
2018-08-17T14:04:59.490Z,21.00
2018-08-17T14:07:28.073Z,21.00
2018-08-17T14:09:56.660Z,21.10
2018-08-17T14:12:25.154Z,21.10
2018-08-17T14:14:53.655Z,21.20
2018-08-17T14:17:22.385Z,21.20
2018-08-17T14:19:50.939Z,21.30
2018-08-17T14:22:19.524Z,21.30
2018-08-17T14:24:48.295Z,21.30
2018-08-17T14:27:16.875Z,21.30
2018-08-17T14:29:45.421Z,21.30
2018-08-17T14:32:14.154Z,21.30
2018-08-17T14:34:42.697Z,21.30
2018-08-17T14:37:11.360Z,21.20
2018-08-17T14:39:40.112Z,21.20
2018-08-17T14:42:08.745Z,21.20
2018-08-17T14:44:37.290Z,21.20
2018-08-17T14:47:06.039Z,21.10
2018-08-17T14:49:34.542Z,21.10
2018-08-17T14:52:03.463Z,21.20
2018-08-17T14:54:32.104Z,21.20
2018-08-17T14:57:00.754Z,21.30
2018-08-17T14:59:29.371Z,21.30
2018-08-17T15:01:58.078Z,21.30
2018-08-17T15:04:26.757Z,21.40
2018-08-17T15:06:55.338Z,21.40
2018-08-17T15:09:23.935Z,21.40
2018-08-17T15:11:52.504Z,21.30
2018-08-17T15:14:21.096Z,21.30
2018-08-17T15:16:49.622Z,21.20
2018-08-17T15:19:18.141Z,21.20
2018-08-17T15:21:46.824Z,21.20
2018-08-17T15:24:15.543Z,21.20
2018-08-17T15:26:44.243Z,21.10
2018-08-17T15:29:12.791Z,21.10
2018-08-17T15:31:41.331Z,21.10
2018-08-17T15:34:09.985Z,21.20
2018-08-17T15:36:38.789Z,21.10
2018-08-17T15:39:08.460Z,21.10
2018-08-17T15:41:42.320Z,21.20
2018-08-17T15:44:29.796Z,21.20
2018-08-17T15:46:58.864Z,21.30
2018-08-17T15:49:34.032Z,21.30
2018-08-17T15:52:03.847Z,21.30
2018-08-17T15:54:32.650Z,21.20
2018-08-17T15:57:01.188Z,21.20
2018-08-17T15:59:29.911Z,21.20
2018-08-17T16:01:58.679Z,21.10
2018-08-17T16:04:27.480Z,21.10
2018-08-17T16:06:55.953Z,21.10
2018-08-17T16:09:24.745Z,21.10
2018-08-17T16:11:53.447Z,21.10
2018-08-17T16:14:22.107Z,21.00
2018-08-17T16:16:50.719Z,20.90
2018-08-17T16:19:19.283Z,20.90
2018-08-17T16:21:47.805Z,20.90
2018-08-17T16:24:16.472Z,20.90
2018-08-17T16:26:45.119Z,20.90
2018-08-17T16:29:13.767Z,20.90
2018-08-17T16:31:43.003Z,20.90
2018-08-17T16:34:11.766Z,20.90
2018-08-17T16:36:42.117Z,20.90
2018-08-17T16:39:13.942Z,20.90
2018-08-17T16:41:42.838Z,20.90
2018-08-17T16:44:11.770Z,20.90
2018-08-17T16:46:41.945Z,20.80
2018-08-17T16:49:10.697Z,20.80
2018-08-17T16:51:39.656Z,20.80
2018-08-17T16:54:08.634Z,20.70
2018-08-17T16:56:37.518Z,20.70
2018-08-17T16:59:06.471Z,20.70
2018-08-17T17:01:35.295Z,20.80
2018-08-17T17:04:04.088Z,20.70
2018-08-17T17:06:33.187Z,20.70
2018-08-17T17:09:04.943Z,20.70
2018-08-17T17:11:34.028Z,20.70
2018-08-17T17:14:02.788Z,20.60
2018-08-17T17:16:50.222Z,20.60
2018-08-17T17:19:21.215Z,20.70
2018-08-17T17:21:51.112Z,20.70
2018-08-17T17:24:20.157Z,20.70
2018-08-17T17:26:48.872Z,20.70
2018-08-17T17:29:17.371Z,20.60
2018-08-17T17:31:49.805Z,20.60
2018-08-17T17:34:18.324Z,20.60
2018-08-17T17:36:46.965Z,20.60
2018-08-17T17:39:15.809Z,20.60
2018-08-17T17:41:44.643Z,20.50
2018-08-17T17:44:13.280Z,20.40
2018-08-17T17:46:42.208Z,20.40
2018-08-17T17:49:11.139Z,20.40
2018-08-17T17:51:39.924Z,20.30
2018-08-17T17:54:08.719Z,20.30
2018-08-17T17:56:37.323Z,20.30
2018-08-17T17:59:11.071Z,20.30
2018-08-17T18:01:39.708Z,20.30
2018-08-17T18:04:09.955Z,20.30
2018-08-17T18:06:38.608Z,20.30
2018-08-17T18:09:07.420Z,20.30
2018-08-17T18:11:35.963Z,20.20
2018-08-17T18:14:04.562Z,20.30
2018-08-17T18:16:33.135Z,20.30
2018-08-17T18:19:01.678Z,20.20
2018-08-17T18:21:32.474Z,20.20
2018-08-17T18:24:07.150Z,20.20
2018-08-17T18:26:36.160Z,20.20
2018-08-17T18:29:05.051Z,20.20
2018-08-17T18:31:33.675Z,20.20
2018-08-17T18:34:02.297Z,20.20
2018-08-17T18:36:30.899Z,20.10
2018-08-17T18:38:59.518Z,20.20
2018-08-17T18:41:28.181Z,20.10
2018-08-17T18:43:57.109Z,20.10
2018-08-17T18:46:26.022Z,20.10
2018-08-17T18:48:54.551Z,20.00
2018-08-17T18:51:23.147Z,20.00
2018-08-17T18:53:51.729Z,20.00
2018-08-17T18:56:20.260Z,20.00
2018-08-17T18:58:48.820Z,20.00
2018-08-17T19:01:17.459Z,20.00
2018-08-17T19:03:46.016Z,20.00
2018-08-17T19:06:14.851Z,19.90
2018-08-17T19:08:43.430Z,19.90
2018-08-17T19:11:11.924Z,19.90
2018-08-17T19:13:40.597Z,19.90
2018-08-17T19:16:09.226Z,19.90
2018-08-17T19:18:37.726Z,19.90
2018-08-17T19:21:10.807Z,19.80
2018-08-17T19:23:39.634Z,19.70
2018-08-17T19:26:09.584Z,19.70
2018-08-17T19:28:38.358Z,19.70
2018-08-17T19:31:07.437Z,19.60
2018-08-17T19:33:36.057Z,19.60
2018-08-17T19:36:05.168Z,19.50
2018-08-17T19:38:38.782Z,19.50
2018-08-17T19:41:07.415Z,19.40
2018-08-17T19:43:36.215Z,19.30
2018-08-17T19:46:05.240Z,19.30
2018-08-17T19:48:34.192Z,19.30
2018-08-17T19:51:06.969Z,19.20
2018-08-17T19:53:35.944Z,19.20
2018-08-17T19:56:04.627Z,19.10
2018-08-17T19:58:33.496Z,19.10
2018-08-17T20:01:02.300Z,19.00
2018-08-17T20:03:30.968Z,19.00
2018-08-17T20:05:59.694Z,18.90
2018-08-17T20:08:28.395Z,18.80
2018-08-17T20:10:57.157Z,18.80
2018-08-17T20:13:25.754Z,18.80
2018-08-17T20:15:54.510Z,18.70
2018-08-17T20:18:23.209Z,18.60
2018-08-17T20:20:51.788Z,18.60
2018-08-17T20:23:20.576Z,18.60
2018-08-17T20:25:49.311Z,18.60
2018-08-17T20:28:17.887Z,18.60
2018-08-17T20:30:46.402Z,18.50
2018-08-17T20:33:20.187Z,18.50
2018-08-17T20:35:49.106Z,18.50
2018-08-17T20:38:17.754Z,18.40
2018-08-17T20:40:46.346Z,18.40
2018-08-17T20:43:14.890Z,18.30
2018-08-17T20:45:43.486Z,18.30
2018-08-17T20:48:12.250Z,18.30
2018-08-17T20:50:40.849Z,18.20
2018-08-17T20:53:09.376Z,18.20
2018-08-17T20:55:37.996Z,18.20
2018-08-17T20:58:06.976Z,18.20
2018-08-17T21:00:35.840Z,18.20
2018-08-17T21:03:04.267Z,18.10
2018-08-17T21:05:32.939Z,18.10
2018-08-17T21:08:01.538Z,18.10
2018-08-17T21:10:30.069Z,18.10
2018-08-17T21:12:58.640Z,18.10
2018-08-17T21:15:27.410Z,18.10
2018-08-17T21:17:55.987Z,18.10
2018-08-17T21:20:24.558Z,18.10
2018-08-17T21:22:53.191Z,18.00
2018-08-17T21:25:21.727Z,18.00
2018-08-17T21:27:50.423Z,17.90
2018-08-17T21:30:19.009Z,17.80
2018-08-17T21:32:47.471Z,17.80
2018-08-17T21:35:16.143Z,17.80
2018-08-17T21:37:44.695Z,17.80
2018-08-17T21:40:23.869Z,17.80
2018-08-17T21:42:52.487Z,17.80
2018-08-17T21:45:21.051Z,17.70
2018-08-17T21:47:49.646Z,17.70
2018-08-17T21:50:18.268Z,17.70
2018-08-17T21:52:47.274Z,17.60
2018-08-17T21:55:16.239Z,17.60
2018-08-17T21:57:44.887Z,17.50
2018-08-17T22:00:20.295Z,17.60
2018-08-17T22:02:49.155Z,17.50
2018-08-17T22:05:22.194Z,17.40
2018-08-17T22:07:50.854Z,17.40
2018-08-17T22:10:19.393Z,17.30
2018-08-17T22:12:47.931Z,17.30
2018-08-17T22:15:16.563Z,17.30
2018-08-17T22:17:45.132Z,17.20
2018-08-17T22:20:13.672Z,17.20
2018-08-17T22:22:42.183Z,17.20
2018-08-17T22:25:12.726Z,17.20
2018-08-17T22:27:41.269Z,17.20
2018-08-17T22:30:20.907Z,17.20
2018-08-17T22:32:49.674Z,17.10
2018-08-17T22:35:18.775Z,17.10
2018-08-17T22:37:47.279Z,17.10
2018-08-17T22:40:15.974Z,17.10
2018-08-17T22:42:47.479Z,17.10
2018-08-17T22:45:16.322Z,17.00
2018-08-17T22:47:45.383Z,17.00
2018-08-17T22:50:14.108Z,17.00
2018-08-17T22:52:42.633Z,17.00
2018-08-17T22:55:11.435Z,17.00
2018-08-17T22:57:40.142Z,17.00
2018-08-17T23:00:24.188Z,17.00
2018-08-17T23:02:54.414Z,17.00
2018-08-17T23:05:25.270Z,16.90
2018-08-17T23:07:54.111Z,16.90
2018-08-17T23:10:23.867Z,16.80
2018-08-17T23:12:53.214Z,16.80
2018-08-17T23:15:21.806Z,16.70
2018-08-17T23:17:53.667Z,16.70
2018-08-17T23:20:27.447Z,16.70
2018-08-17T23:22:57.247Z,16.70
2018-08-17T23:25:25.998Z,16.80
2018-08-17T23:27:54.714Z,16.70
2018-08-17T23:30:23.385Z,16.70
2018-08-17T23:32:51.954Z,16.60
2018-08-17T23:35:20.671Z,16.60
2018-08-17T23:37:49.553Z,16.50
2018-08-17T23:40:18.247Z,16.50
2018-08-17T23:42:47.046Z,16.40
2018-08-17T23:45:16.842Z,16.40
2018-08-17T23:47:45.384Z,16.40
2018-08-17T23:50:15.030Z,16.40
2018-08-17T23:52:43.840Z,16.40
2018-08-17T23:55:14.603Z,16.40
2018-08-17T23:57:43.235Z,16.30
